TAF KFVE
KFVE 090520Z 0906/1006 35004KT P6SM OVC060 FM091500 34006KT P6SM BKN040 FM091800 34008KT P6SM SCT035 FM092300 33005KT P6SM FEW080 FM100400 00000KT P6SM SCT080=
METAR KFVE
WC KFVE
WS KFVE
WV KFVE